createdAt,value
2024-03-16T00:00:15.787Z,26.08
2024-03-16T00:01:19.333Z,26.42
2024-03-16T00:02:22.603Z,25.23
2024-03-16T00:03:25.374Z,25.20
2024-03-16T00:04:28.362Z,24.63
2024-03-16T00:05:31.532Z,25.50
2024-03-16T00:06:35.038Z,24.02
2024-03-16T00:07:38.010Z,25.52
2024-03-16T00:08:40.677Z,24.73
2024-03-16T00:09:43.711Z,25.45
2024-03-16T00:10:46.985Z,25.83
2024-03-16T00:11:50.046Z,25.33
2024-03-16T00:12:53.008Z,25.35
2024-03-16T00:13:55.924Z,25.27
2024-03-16T00:14:58.536Z,25.57
2024-03-16T00:16:02.089Z,24.60
2024-03-16T00:17:06.144Z,25.73
2024-03-16T00:18:09.266Z,26.42
2024-03-16T00:19:12.323Z,26.45
2024-03-16T00:20:15.292Z,24.83
2024-03-16T00:21:18.208Z,25.00
2024-03-16T00:22:21.463Z,25.45
2024-03-16T00:23:24.465Z,25.83
2024-03-16T00:24:27.410Z,24.73
2024-03-16T00:25:30.123Z,25.00
2024-03-16T00:26:32.834Z,24.02
2024-03-16T00:27:36.425Z,23.40
2024-03-16T00:28:39.023Z,25.33
2024-03-16T00:29:41.941Z,23.55
2024-03-16T00:30:44.949Z,23.33
2024-03-16T00:31:50.227Z,22.98
2024-03-16T00:32:53.362Z,23.27
2024-03-16T00:33:56.167Z,23.70
2024-03-16T00:34:59.099Z,23.70
2024-03-16T00:36:02.048Z,23.90
2024-03-16T00:37:05.951Z,25.03
2024-03-16T00:38:09.280Z,24.42
2024-03-16T00:39:19.584Z,24.17
2024-03-16T00:40:22.582Z,24.98
2024-03-16T00:41:25.361Z,26.35
2024-03-16T00:42:28.402Z,24.00
2024-03-16T00:43:31.615Z,26.58
2024-03-16T00:44:34.346Z,24.87
2024-03-16T00:45:37.351Z,24.20
2024-03-16T00:46:40.232Z,24.33
2024-03-16T00:47:43.005Z,22.93
2024-03-16T00:48:45.984Z,22.90
2024-03-16T00:49:49.111Z,24.42
2024-03-16T00:50:51.739Z,23.80
2024-03-16T00:51:54.402Z,24.30
2024-03-16T00:52:57.430Z,22.98
2024-03-16T00:54:00.605Z,24.08
2024-03-16T00:55:05.157Z,25.30
2024-03-16T00:56:11.144Z,24.15
2024-03-16T00:57:14.189Z,23.90
2024-03-16T00:58:16.920Z,24.37
2024-03-16T00:59:20.400Z,24.58
2024-03-16T01:00:23.578Z,24.85
2024-03-16T01:01:29.408Z,25.25
2024-03-16T01:02:32.550Z,23.70
2024-03-16T01:03:35.624Z,23.65
2024-03-16T01:04:38.898Z,23.77
2024-03-16T01:05:41.557Z,24.10
2024-03-16T01:06:45.303Z,24.42
2024-03-16T01:07:47.994Z,25.33
2024-03-16T01:08:50.848Z,22.83
2024-03-16T01:09:54.096Z,22.98
2024-03-16T01:10:57.353Z,24.25
2024-03-16T01:12:00.355Z,24.25
2024-03-16T01:13:03.140Z,23.95
2024-03-16T01:14:06.366Z,24.17
2024-03-16T01:15:10.909Z,24.92
2024-03-16T01:16:13.994Z,23.17
2024-03-16T01:17:17.063Z,24.37
2024-03-16T01:18:19.987Z,24.13
2024-03-16T01:19:22.777Z,24.10
2024-03-16T01:20:25.970Z,24.17
2024-03-16T01:21:28.676Z,24.33
2024-03-16T01:22:31.623Z,23.87
2024-03-16T01:23:35.046Z,23.92
2024-03-16T01:24:37.973Z,22.58
2024-03-16T01:25:41.355Z,23.77
2024-03-16T01:26:45.256Z,23.73
2024-03-16T01:27:48.270Z,24.05
2024-03-16T01:28:51.061Z,22.80
2024-03-16T01:29:53.802Z,25.30
2024-03-16T01:30:57.340Z,23.85
2024-03-16T01:32:00.692Z,24.77
2024-03-16T01:33:04.062Z,25.30
2024-03-16T01:34:07.035Z,25.90
2024-03-16T01:35:10.775Z,23.80
2024-03-16T01:36:14.998Z,24.83
2024-03-16T01:37:18.704Z,23.77
2024-03-16T01:38:21.817Z,24.48
2024-03-16T01:39:24.742Z,23.07
2024-03-16T01:40:27.413Z,22.60
2024-03-16T01:41:30.598Z,22.45
2024-03-16T01:42:33.235Z,22.13
2024-03-16T01:43:36.126Z,22.10
2024-03-16T01:44:39.083Z,23.27
2024-03-16T01:45:42.849Z,22.40
2024-03-16T01:46:46.351Z,21.35
2024-03-16T01:47:49.257Z,21.60
2024-03-16T01:48:55.427Z,21.73
2024-03-16T01:49:58.930Z,20.67
2024-03-16T01:51:02.562Z,21.77
2024-03-16T01:52:06.776Z,19.90
2024-03-16T01:53:12.900Z,20.83
2024-03-16T01:54:15.822Z,19.85
2024-03-16T01:55:19.157Z,19.08
2024-03-16T01:56:22.193Z,19.37
2024-03-16T01:57:25.582Z,20.05
2024-03-16T01:58:28.549Z,19.27
2024-03-16T01:59:31.406Z,20.05
2024-03-16T02:00:35.751Z,18.63
2024-03-16T02:01:40.497Z,19.87
2024-03-16T02:02:43.167Z,19.10
2024-03-16T02:03:47.851Z,19.08
2024-03-16T02:04:50.407Z,18.55
2024-03-16T02:05:53.073Z,18.67
2024-03-16T02:06:56.396Z,18.92
2024-03-16T02:08:00.557Z,18.75
2024-03-16T02:09:04.109Z,18.70
2024-03-16T02:10:10.488Z,18.98
2024-03-16T02:11:13.786Z,18.77
2024-03-16T02:12:16.747Z,19.25
2024-03-16T02:13:19.685Z,18.75
2024-03-16T02:14:22.691Z,18.77
2024-03-16T02:15:25.426Z,19.23
2024-03-16T02:16:28.023Z,19.52
2024-03-16T02:17:31.011Z,18.33
2024-03-16T02:18:33.751Z,18.37
2024-03-16T02:19:36.542Z,18.40
2024-03-16T02:20:39.191Z,17.85
2024-03-16T02:21:42.052Z,17.43
2024-03-16T02:22:45.852Z,17.73
2024-03-16T02:23:49.418Z,18.83
2024-03-16T02:24:52.493Z,17.70
2024-03-16T02:25:55.463Z,18.58
2024-03-16T02:26:58.201Z,19.02
2024-03-16T02:28:01.489Z,17.98
2024-03-16T02:29:06.147Z,19.62
2024-03-16T02:30:15.937Z,18.35
2024-03-16T02:31:19.754Z,17.98
2024-03-16T02:32:22.497Z,19.00
2024-03-16T02:33:28.782Z,19.00
2024-03-16T02:34:32.405Z,18.55
2024-03-16T02:35:35.420Z,18.83
2024-03-16T02:36:38.746Z,18.98
2024-03-16T02:37:41.896Z,19.95
2024-03-16T02:38:45.044Z,18.40
2024-03-16T02:39:48.010Z,19.27
2024-03-16T02:40:50.973Z,18.37
2024-03-16T02:41:56.853Z,18.70
2024-03-16T02:42:59.873Z,17.87
2024-03-16T02:44:03.004Z,18.93
2024-03-16T02:45:07.144Z,18.80
2024-03-16T02:46:10.452Z,18.25
2024-03-16T02:47:13.889Z,18.67
2024-03-16T02:48:16.600Z,18.90
2024-03-16T02:49:19.824Z,17.62
2024-03-16T02:50:22.852Z,18.80
2024-03-16T02:51:25.800Z,18.30
2024-03-16T02:52:28.958Z,18.90
2024-03-16T02:53:31.828Z,17.37
2024-03-16T02:54:35.007Z,18.27
2024-03-16T02:55:37.952Z,17.80
2024-03-16T02:56:40.842Z,17.83
2024-03-16T02:57:44.244Z,18.92
2024-03-16T02:58:47.327Z,17.83
2024-03-16T02:59:50.622Z,18.25
2024-03-16T03:00:54.135Z,19.15
2024-03-16T03:01:58.782Z,17.65
2024-03-16T03:03:01.814Z,18.73
2024-03-16T03:04:08.588Z,17.43
2024-03-16T03:05:13.203Z,18.35
2024-03-16T03:06:16.053Z,18.02
2024-03-16T03:07:19.237Z,18.15
2024-03-16T03:08:22.567Z,18.23
2024-03-16T03:09:25.482Z,18.25
2024-03-16T03:10:28.408Z,17.55
2024-03-16T03:11:31.078Z,18.35
2024-03-16T03:12:34.342Z,19.50
2024-03-16T03:13:37.512Z,19.00
2024-03-16T03:14:40.584Z,17.93
2024-03-16T03:15:44.020Z,18.63
2024-03-16T03:16:46.891Z,18.83
2024-03-16T03:17:49.856Z,19.15
2024-03-16T03:18:52.679Z,18.40
2024-03-16T03:19:55.683Z,18.77
2024-03-16T03:20:59.020Z,17.52
2024-03-16T03:22:02.259Z,17.58
2024-03-16T03:23:06.830Z,18.40
2024-03-16T03:24:09.788Z,17.92
2024-03-16T03:25:12.770Z,17.03
2024-03-16T03:26:16.071Z,17.62
2024-03-16T03:27:18.939Z,17.83
2024-03-16T03:28:21.893Z,17.80
2024-03-16T03:29:24.731Z,18.77
2024-03-16T03:30:27.378Z,20.62
2024-03-16T03:31:30.641Z,19.83
2024-03-16T03:32:33.820Z,20.30
2024-03-16T03:33:36.821Z,20.50
2024-03-16T03:34:39.640Z,21.98
2024-03-16T03:35:42.512Z,21.57
2024-03-16T03:36:46.128Z,21.07
2024-03-16T03:37:49.057Z,22.13
2024-03-16T03:38:52.004Z,21.58
2024-03-16T03:39:54.953Z,20.88
2024-03-16T03:40:58.590Z,21.17
2024-03-16T03:42:01.625Z,19.10
2024-03-16T03:43:06.768Z,20.88
2024-03-16T03:44:37.156Z,20.20
2024-03-16T03:45:51.301Z,19.92
2024-03-16T03:46:56.266Z,19.07
2024-03-16T03:48:04.189Z,19.50
2024-03-16T03:49:16.073Z,19.02
2024-03-16T03:50:28.263Z,18.87
2024-03-16T03:51:31.173Z,20.25
2024-03-16T03:52:33.779Z,18.95
2024-03-16T03:53:37.091Z,18.92
2024-03-16T03:54:40.146Z,18.90
2024-03-16T03:55:43.753Z,19.15
2024-03-16T03:56:46.643Z,19.40
2024-03-16T03:57:50.997Z,18.07
2024-03-16T03:58:55.766Z,19.03
2024-03-16T03:59:58.653Z,17.92
2024-03-16T04:01:01.937Z,16.92
2024-03-16T04:02:05.220Z,19.60
2024-03-16T04:03:08.132Z,19.80
2024-03-16T04:04:11.329Z,19.60
2024-03-16T04:05:14.254Z,19.05
2024-03-16T04:06:17.126Z,18.67
2024-03-16T04:07:20.424Z,18.60
2024-03-16T04:08:23.163Z,18.50
2024-03-16T04:09:26.128Z,17.47
2024-03-16T04:10:29.074Z,18.20
2024-03-16T04:11:32.007Z,17.77
2024-03-16T04:12:35.349Z,18.62
2024-03-16T04:13:38.381Z,18.25
2024-03-16T04:14:41.367Z,17.98
2024-03-16T04:15:44.070Z,17.75
2024-03-16T04:16:48.882Z,17.62
2024-03-16T04:17:51.913Z,17.85
2024-03-16T04:18:54.893Z,17.80
2024-03-16T04:19:57.764Z,17.70
2024-03-16T04:21:02.467Z,17.25
2024-03-16T04:22:06.423Z,18.00
2024-03-16T04:23:10.325Z,18.48
2024-03-16T04:24:13.048Z,17.60
2024-03-16T04:25:17.870Z,17.00
2024-03-16T04:26:20.565Z,17.90
2024-03-16T04:27:23.498Z,16.27
2024-03-16T04:28:26.769Z,17.75
2024-03-16T04:29:29.807Z,17.30
2024-03-16T04:30:32.548Z,17.83
2024-03-16T04:31:35.658Z,16.35
2024-03-16T04:32:39.003Z,16.73
2024-03-16T04:33:41.925Z,17.45
2024-03-16T04:34:44.780Z,18.23
2024-03-16T04:35:47.476Z,16.80
2024-03-16T04:36:50.515Z,17.73
2024-03-16T04:37:53.892Z,17.90
2024-03-16T04:38:57.092Z,18.10
2024-03-16T04:40:00.058Z,16.40
2024-03-16T04:41:03.771Z,16.93
2024-03-16T04:42:06.718Z,16.90
2024-03-16T04:43:09.781Z,17.98
2024-03-16T04:44:13.074Z,19.27
2024-03-16T04:45:15.752Z,17.20
2024-03-16T04:46:18.579Z,17.00
2024-03-16T04:47:21.450Z,16.85
2024-03-16T04:48:24.304Z,17.27
2024-03-16T04:49:27.482Z,18.15
2024-03-16T04:50:30.430Z,16.60
2024-03-16T04:51:34.128Z,17.27
2024-03-16T04:52:37.132Z,16.58
2024-03-16T04:53:40.009Z,17.15
2024-03-16T04:54:42.909Z,17.50
2024-03-16T04:55:45.616Z,17.05
2024-03-16T04:56:48.633Z,16.17
2024-03-16T04:57:51.484Z,16.27
2024-03-16T04:58:54.154Z,15.90
2024-03-16T04:59:57.096Z,16.23
2024-03-16T05:00:59.961Z,16.30
2024-03-16T05:02:02.737Z,16.83
2024-03-16T05:03:05.919Z,16.17
2024-03-16T05:04:11.386Z,15.30
2024-03-16T05:05:14.371Z,16.75
2024-03-16T05:06:17.288Z,16.45
2024-03-16T05:07:22.980Z,15.60
2024-03-16T05:08:26.359Z,16.35
2024-03-16T05:09:29.652Z,15.57
2024-03-16T05:10:33.187Z,15.73
2024-03-16T05:11:37.450Z,15.87
2024-03-16T05:12:40.077Z,15.97
2024-03-16T05:13:43.183Z,15.85
2024-03-16T05:14:46.046Z,16.42
2024-03-16T05:15:49.829Z,16.62
2024-03-16T05:16:52.858Z,15.85
2024-03-16T05:17:55.707Z,15.95
2024-03-16T05:18:58.760Z,16.62
2024-03-16T05:20:01.416Z,17.15
2024-03-16T05:21:05.886Z,17.10
2024-03-16T05:22:09.206Z,15.77
2024-03-16T05:23:12.260Z,16.37
2024-03-16T05:24:15.234Z,17.27
2024-03-16T05:25:18.015Z,16.27
2024-03-16T05:26:21.479Z,16.52
2024-03-16T05:27:24.202Z,16.62
2024-03-16T05:28:28.077Z,16.40
2024-03-16T05:29:31.163Z,15.95
2024-03-16T05:30:33.888Z,16.45
2024-03-16T05:31:38.842Z,16.30
2024-03-16T05:32:42.416Z,16.87
2024-03-16T05:33:45.499Z,17.53
2024-03-16T05:34:48.257Z,16.45
2024-03-16T05:35:50.879Z,16.98
2024-03-16T05:36:53.963Z,17.73
2024-03-16T05:37:57.358Z,16.50
2024-03-16T05:39:01.014Z,16.58
2024-03-16T05:40:04.555Z,17.08
2024-03-16T05:41:10.696Z,16.92
2024-03-16T05:42:14.439Z,17.17
2024-03-16T05:43:17.438Z,15.67
2024-03-16T05:44:20.443Z,17.33
2024-03-16T05:45:23.350Z,16.77
2024-03-16T05:46:26.300Z,15.50
2024-03-16T05:47:29.543Z,17.60
2024-03-16T05:48:32.330Z,16.75
2024-03-16T05:49:35.369Z,16.70
2024-03-16T05:50:38.091Z,15.57
2024-03-16T05:51:40.756Z,16.52
2024-03-16T05:52:43.682Z,16.52
2024-03-16T05:53:46.797Z,15.93
2024-03-16T05:54:49.811Z,15.97
2024-03-16T05:55:53.017Z,15.75
2024-03-16T05:56:55.625Z,16.77
2024-03-16T05:57:58.850Z,16.62
2024-03-16T05:59:02.075Z,16.35
2024-03-16T06:00:14.854Z,14.60
2024-03-16T06:01:18.492Z,16.00
2024-03-16T06:02:23.428Z,16.50
2024-03-16T06:03:27.868Z,17.10
2024-03-16T06:04:30.867Z,16.57
2024-03-16T06:05:39.822Z,16.60
2024-03-16T06:06:43.068Z,15.43
2024-03-16T06:07:45.970Z,15.85
2024-03-16T06:08:48.873Z,15.50
2024-03-16T06:09:51.835Z,15.68
2024-03-16T06:10:54.627Z,16.50
2024-03-16T06:11:57.927Z,15.50
2024-03-16T06:13:01.597Z,15.93
2024-03-16T06:14:05.831Z,16.80
2024-03-16T06:15:08.917Z,15.87
2024-03-16T06:16:11.889Z,16.27
2024-03-16T06:17:15.094Z,15.20
2024-03-16T06:18:19.811Z,15.52
2024-03-16T06:19:22.433Z,15.23
2024-03-16T06:20:25.374Z,15.70
2024-03-16T06:21:31.263Z,15.43
2024-03-16T06:22:34.272Z,15.23
2024-03-16T06:23:36.884Z,14.30
2024-03-16T06:24:39.823Z,15.90
2024-03-16T06:25:48.459Z,15.73
2024-03-16T06:26:55.882Z,15.23
2024-03-16T06:28:07.715Z,13.95
2024-03-16T06:29:10.961Z,14.48
2024-03-16T06:30:17.074Z,15.43
2024-03-16T06:31:27.139Z,15.55
2024-03-16T06:32:35.588Z,15.40
2024-03-16T06:33:46.242Z,15.68
2024-03-16T06:34:49.832Z,15.52
2024-03-16T06:35:52.799Z,16.37
2024-03-16T06:36:55.660Z,15.90
2024-03-16T06:37:58.586Z,16.23
2024-03-16T06:39:01.935Z,14.23
2024-03-16T06:40:05.863Z,15.27
2024-03-16T06:41:09.095Z,15.85
2024-03-16T06:42:13.110Z,14.77
2024-03-16T06:43:16.178Z,14.27
2024-03-16T06:44:19.984Z,14.55
2024-03-16T06:45:22.877Z,14.63
2024-03-16T06:46:25.825Z,15.07
2024-03-16T06:47:29.005Z,14.17
2024-03-16T06:48:32.234Z,14.63
2024-03-16T06:49:35.450Z,14.68
2024-03-16T06:50:38.916Z,14.87
2024-03-16T06:51:41.818Z,14.02
2024-03-16T06:52:44.600Z,15.43
2024-03-16T06:53:48.813Z,15.38
2024-03-16T06:54:55.116Z,14.93
2024-03-16T06:55:57.800Z,14.82
2024-03-16T06:57:01.348Z,15.02
2024-03-16T06:58:06.076Z,15.27
2024-03-16T06:59:08.779Z,16.67
2024-03-16T07:00:12.709Z,17.15
2024-03-16T07:01:15.892Z,16.98
2024-03-16T07:02:19.673Z,16.65
2024-03-16T07:03:22.437Z,16.67
2024-03-16T07:04:25.198Z,16.00
2024-03-16T07:05:28.104Z,16.95
2024-03-16T07:06:31.186Z,16.35
2024-03-16T07:07:33.947Z,15.70
2024-03-16T07:08:39.951Z,15.03
2024-03-16T07:09:42.949Z,15.90
2024-03-16T07:10:46.662Z,15.45
2024-03-16T07:11:49.443Z,15.35
2024-03-16T07:12:52.199Z,15.95
2024-03-16T07:13:55.508Z,15.18
2024-03-16T07:14:58.275Z,14.75
2024-03-16T07:16:01.376Z,14.20
2024-03-16T07:17:04.589Z,14.13
2024-03-16T07:18:08.508Z,13.95
2024-03-16T07:19:11.410Z,15.10
2024-03-16T07:20:15.889Z,15.57
2024-03-16T07:21:20.748Z,24.50
2024-03-16T07:22:23.694Z,40.67
2024-03-16T07:23:26.968Z,32.13
2024-03-16T07:24:30.287Z,26.70
2024-03-16T07:25:33.024Z,19.85
2024-03-16T07:26:36.544Z,18.52
2024-03-16T07:27:39.565Z,16.25
2024-03-16T07:28:42.611Z,13.68
2024-03-16T07:29:45.548Z,13.47
2024-03-16T07:30:48.379Z,12.93
2024-03-16T07:31:51.412Z,11.30
2024-03-16T07:32:54.448Z,12.25
2024-03-16T07:33:59.223Z,11.00
2024-03-16T07:35:07.811Z,11.90
2024-03-16T07:36:11.089Z,11.98
2024-03-16T07:37:16.821Z,11.35
2024-03-16T07:38:19.640Z,11.00
2024-03-16T07:39:22.501Z,11.77
2024-03-16T07:40:25.481Z,10.57
2024-03-16T07:41:28.104Z,11.20
2024-03-16T07:42:31.217Z,10.70
2024-03-16T07:43:34.145Z,10.98
2024-03-16T07:44:36.991Z,11.95
2024-03-16T07:45:43.761Z,11.65
2024-03-16T07:46:48.172Z,11.23
2024-03-16T07:47:51.442Z,10.88
2024-03-16T07:48:54.321Z,11.02
2024-03-16T07:49:57.005Z,11.77
2024-03-16T07:51:01.021Z,12.83
2024-03-16T07:52:05.102Z,14.67
2024-03-16T07:53:08.036Z,14.60
2024-03-16T07:54:13.678Z,14.98
2024-03-16T07:55:16.702Z,13.82
2024-03-16T07:56:19.862Z,13.88
2024-03-16T07:57:22.697Z,11.60
2024-03-16T07:58:26.125Z,12.37
2024-03-16T07:59:29.231Z,11.77
2024-03-16T08:00:33.107Z,11.15
2024-03-16T08:01:37.517Z,11.00
2024-03-16T08:02:40.272Z,12.20
2024-03-16T08:03:46.008Z,11.05
2024-03-16T08:04:48.892Z,10.80
2024-03-16T08:05:51.638Z,11.57
2024-03-16T08:06:55.396Z,10.40
2024-03-16T08:07:58.460Z,10.63
2024-03-16T08:09:01.432Z,11.75
2024-03-16T08:10:04.688Z,10.70
2024-03-16T08:11:08.531Z,11.50
2024-03-16T08:12:11.595Z,10.23
2024-03-16T08:13:16.090Z,11.57
2024-03-16T08:14:18.797Z,11.45
2024-03-16T08:15:22.357Z,11.30
2024-03-16T08:16:25.436Z,12.40
2024-03-16T08:17:29.370Z,13.02
2024-03-16T08:18:32.192Z,16.50
2024-03-16T08:19:34.928Z,16.05
2024-03-16T08:20:37.943Z,13.95
2024-03-16T08:21:40.586Z,13.70
2024-03-16T08:22:44.499Z,12.50
2024-03-16T08:23:47.439Z,13.57
2024-03-16T08:24:50.426Z,13.50
2024-03-16T08:25:53.553Z,14.55
2024-03-16T08:26:56.206Z,13.45
2024-03-16T08:27:59.451Z,12.10
2024-03-16T08:29:02.185Z,12.00
2024-03-16T08:30:05.489Z,12.25
2024-03-16T08:31:09.654Z,11.48
2024-03-16T08:32:13.794Z,11.57
2024-03-16T08:33:17.214Z,11.17
2024-03-16T08:34:20.366Z,11.17
2024-03-16T08:35:23.085Z,11.25
2024-03-16T08:36:26.025Z,13.48
2024-03-16T08:37:29.356Z,12.95
2024-03-16T08:38:34.182Z,11.75
2024-03-16T08:39:37.341Z,12.48
2024-03-16T08:40:40.290Z,11.10
2024-03-16T08:41:43.192Z,11.32
2024-03-16T08:42:47.963Z,11.82
2024-03-16T08:43:50.983Z,9.53
2024-03-16T08:44:53.827Z,10.87
2024-03-16T08:45:56.874Z,11.30
2024-03-16T08:46:59.588Z,11.88
2024-03-16T08:48:03.219Z,12.60
2024-03-16T08:49:06.345Z,13.05
2024-03-16T08:50:10.623Z,11.57
2024-03-16T08:51:13.804Z,13.50
2024-03-16T08:52:17.464Z,13.35
2024-03-16T08:53:21.316Z,13.13
2024-03-16T08:54:24.464Z,13.00
2024-03-16T08:55:27.897Z,12.67
2024-03-16T08:56:32.252Z,12.85
2024-03-16T08:57:35.404Z,12.65
2024-03-16T08:58:38.232Z,13.55
2024-03-16T08:59:41.167Z,14.38
2024-03-16T09:00:44.127Z,14.48
2024-03-16T09:01:47.032Z,13.95
2024-03-16T09:02:51.388Z,12.30
2024-03-16T09:03:54.376Z,13.02
2024-03-16T09:04:57.683Z,13.17
2024-03-16T09:06:02.696Z,13.70
2024-03-16T09:07:06.659Z,12.48
2024-03-16T09:08:10.271Z,12.25
2024-03-16T09:09:13.012Z,11.20
2024-03-16T09:10:16.644Z,11.48
2024-03-16T09:11:19.473Z,10.65
2024-03-16T09:12:22.327Z,11.48
2024-03-16T09:13:25.525Z,11.63
2024-03-16T09:14:28.229Z,11.07
2024-03-16T09:15:31.506Z,10.60
2024-03-16T09:16:37.281Z,11.27
2024-03-16T09:17:40.140Z,10.88
2024-03-16T09:18:42.768Z,11.32
2024-03-16T09:19:46.402Z,11.68
2024-03-16T09:20:49.648Z,10.85
2024-03-16T09:21:52.865Z,11.40
2024-03-16T09:22:57.381Z,11.43
2024-03-16T09:24:00.321Z,11.07
2024-03-16T09:25:07.718Z,10.75
2024-03-16T09:26:11.034Z,11.07
2024-03-16T09:27:13.664Z,11.40
2024-03-16T09:28:16.679Z,12.82
2024-03-16T09:29:21.016Z,14.32
2024-03-16T09:30:24.211Z,15.77
2024-03-16T09:31:27.530Z,16.20
2024-03-16T09:32:30.493Z,18.08
2024-03-16T09:33:33.758Z,20.37
2024-03-16T09:34:36.866Z,19.90
2024-03-16T09:35:46.419Z,16.98
2024-03-16T09:36:49.634Z,14.57
2024-03-16T09:37:52.552Z,13.27
2024-03-16T09:38:55.440Z,12.10
2024-03-16T09:39:58.526Z,12.40
2024-03-16T09:41:01.469Z,12.07
2024-03-16T09:42:05.723Z,10.43
